Time;durP1;ratioP1;P1;durP2;ratioP2;P2;SDS_P1;SDS_P2;PMS_P1;PMS_P2;Temp;Humidity;BMP_temperature;BMP_pressure;BME280_temperature;BME280_humidity;BME280_pressure;Samples;Min_cycle;Max_cycle;Signal;HPM_P1;HPM_P2
2023/03/23 00:01:06;;;;;;;26.70;15.30;;;6.90;99.90;;;;;;4845740;29;20060;-64
2023/03/23 00:03:31;;;;;;;19.35;13.13;;;6.90;99.90;;;;;;4843427;29;20500;-67
2023/03/23 00:06:05;;;;;;;22.45;15.32;;;6.90;99.90;;;;;;4847479;29;20045;-63
2023/03/23 00:08:44;;;;;;;18.75;14.88;;;6.90;99.90;;;;;;4836579;29;20090;-65
2023/03/23 00:11:20;;;;;;;27.20;15.18;;;6.90;99.90;;;;;;4841732;29;20046;-70
2023/03/23 00:13:51;;;;;;;25.83;16.92;;;6.80;99.90;;;;;;4842758;29;20072;-66
2023/03/23 00:16:28;;;;;;;17.83;13.95;;;6.80;99.90;;;;;;4840914;29;20065;-65
2023/03/23 00:18:55;;;;;;;22.35;16.08;;;6.80;99.90;;;;;;4843767;29;20068;-65
2023/03/23 00:21:33;;;;;;;24.85;15.85;;;6.80;99.90;;;;;;4843898;29;20045;-63
2023/03/23 00:24:06;;;;;;;21.15;14.50;;;6.70;99.90;;;;;;4835629;29;20066;-67
2023/03/23 00:26:33;;;;;;;22.73;16.08;;;6.80;99.90;;;;;;4845071;29;20042;-63
2023/03/23 00:29:18;;;;;;;24.27;16.40;;;6.80;99.90;;;;;;4839761;29;20086;-63
2023/03/23 00:31:46;;;;;;;21.13;14.90;;;6.80;99.90;;;;;;4856642;29;20046;-65
2023/03/23 00:34:18;;;;;;;22.70;14.50;;;6.80;99.90;;;;;;4841088;29;20132;-66
2023/03/23 00:36:56;;;;;;;19.95;14.60;;;6.90;99.90;;;;;;4841317;29;20132;-65
2023/03/23 00:39:25;;;;;;;16.33;13.43;;;6.80;99.90;;;;;;4844243;29;20117;-66
2023/03/23 00:41:51;;;;;;;18.80;13.38;;;6.90;99.90;;;;;;4847082;29;20631;-64
2023/03/23 00:44:17;;;;;;;17.77;14.27;;;6.90;99.90;;;;;;4845055;29;20050;-65
2023/03/23 00:46:44;;;;;;;19.83;12.82;;;6.90;99.90;;;;;;4843225;29;20053;-65
2023/03/23 00:49:15;;;;;;;21.08;13.52;;;7.00;99.90;;;;;;4860345;29;20545;-65
2023/03/23 00:51:41;;;;;;;22.88;14.55;;;6.90;99.90;;;;;;4844237;29;20568;-67
2023/03/23 00:54:08;;;;;;;16.48;12.65;;;7.00;99.90;;;;;;4843743;29;20056;-64
2023/03/23 00:56:35;;;;;;;16.60;11.63;;;7.00;99.90;;;;;;4826999;29;20045;-64
2023/03/23 00:59:01;;;;;;;19.20;13.90;;;7.00;99.90;;;;;;4846787;29;20153;-67
2023/03/23 01:01:28;;;;;;;23.25;12.43;;;7.00;99.90;;;;;;4847533;29;20048;-64
2023/03/23 01:04:00;;;;;;;19.52;12.85;;;7.00;99.90;;;;;;4847694;29;20038;-67
2023/03/23 01:06:34;;;;;;;17.40;13.20;;;7.00;99.90;;;;;;4845479;29;20746;-67
2023/03/23 01:09:03;;;;;;;15.85;13.80;;;7.00;99.90;;;;;;4838756;29;20050;-66
2023/03/23 01:11:29;;;;;;;16.98;13.43;;;7.00;99.90;;;;;;4840760;29;20456;-65
2023/03/23 01:13:54;;;;;;;17.75;12.65;;;7.00;99.90;;;;;;4846028;29;20045;-66
2023/03/23 01:16:20;;;;;;;20.38;12.55;;;7.00;99.90;;;;;;4847590;29;20045;-65
2023/03/23 01:18:46;;;;;;;19.60;11.75;;;7.00;99.90;;;;;;4842970;29;20736;-65
2023/03/23 01:21:15;;;;;;;17.38;11.77;;;7.00;99.90;;;;;;4849671;29;20050;-64
2023/03/23 01:23:43;;;;;;;17.40;12.55;;;7.00;99.90;;;;;;4845761;29;20108;-64
2023/03/23 01:26:20;;;;;;;16.52;11.85;;;7.00;99.90;;;;;;4843051;29;20037;-66
2023/03/23 01:28:47;;;;;;;17.08;11.55;;;7.00;99.90;;;;;;4838263;29;20046;-67
2023/03/23 01:31:19;;;;;;;18.50;10.60;;;7.00;99.90;;;;;;4850037;29;20545;-66
2023/03/23 01:33:45;;;;;;;10.05;8.95;;;7.00;99.90;;;;;;4851567;29;20098;-66
2023/03/23 01:36:20;;;;;;;24.00;11.23;;;7.10;99.90;;;;;;4845640;29;20491;-66
2023/03/23 01:38:48;;;;;;;13.25;9.50;;;7.10;99.90;;;;;;4841508;29;20049;-63
2023/03/23 01:41:15;;;;;;;13.68;10.73;;;7.10;99.90;;;;;;4846134;29;20072;-65
2023/03/23 01:44:03;;;;;;;15.55;10.73;;;7.10;99.90;;;;;;4842108;29;20061;-64
2023/03/23 01:46:35;;;;;;;16.17;9.55;;;7.10;99.90;;;;;;4845400;29;20119;-64
2023/03/23 01:49:13;;;;;;;12.05;8.38;;;7.10;99.90;;;;;;4843257;29;20057;-67
2023/03/23 01:51:52;;;;;;;12.32;8.30;;;7.10;99.90;;;;;;4861223;29;20525;-67
2023/03/23 01:54:20;;;;;;;15.55;8.70;;;7.10;99.90;;;;;;4839043;29;20049;-63
2023/03/23 01:56:53;;;;;;;14.23;11.88;;;7.10;99.90;;;;;;4857925;29;20053;-64
2023/03/23 01:59:20;;;;;;;13.88;10.48;;;7.10;99.90;;;;;;4839859;29;20096;-67
2023/03/23 02:01:53;;;;;;;10.23;8.02;;;7.00;99.90;;;;;;4846415;29;20053;-67
2023/03/23 02:04:22;;;;;;;11.90;7.88;;;7.00;99.90;;;;;;4850919;29;20071;-64
2023/03/23 02:06:48;;;;;;;13.27;8.68;;;7.00;99.90;;;;;;4868465;29;20038;-65
2023/03/23 02:09:19;;;;;;;12.75;9.23;;;7.00;99.90;;;;;;4847120;29;20041;-64
2023/03/23 02:11:49;;;;;;;16.60;9.40;;;7.00;99.90;;;;;;4861023;29;20485;-67
2023/03/23 02:14:16;;;;;;;14.18;9.65;;;7.00;99.90;;;;;;4853598;29;20912;-65
2023/03/23 02:17:01;;;;;;;13.63;9.85;;;7.00;99.90;;;;;;4843613;29;20054;-63
2023/03/23 02:19:36;;;;;;;9.43;7.97;;;7.00;99.90;;;;;;4847795;29;20396;-65
2023/03/23 02:22:29;;;;;;;14.27;9.18;;;7.00;99.90;;;;;;4831469;29;20479;-66
2023/03/23 02:25:23;;;;;;;14.68;10.60;;;7.00;99.90;;;;;;4843450;29;20041;-65
2023/03/23 02:28:07;;;;;;;18.13;10.68;;;7.00;99.90;;;;;;4845525;29;20061;-64
2023/03/23 02:30:33;;;;;;;12.65;9.60;;;6.90;99.90;;;;;;4842261;29;20534;-64
2023/03/23 02:33:26;;;;;;;14.60;10.20;;;6.90;99.90;;;;;;4842597;29;20058;-67
2023/03/23 02:35:57;;;;;;;12.23;9.45;;;6.90;99.90;;;;;;4861005;29;20033;-64
2023/03/23 02:38:31;;;;;;;19.20;8.65;;;6.90;99.90;;;;;;4846966;29;20060;-63
2023/03/23 02:41:00;;;;;;;10.15;8.45;;;6.90;99.90;;;;;;4839847;29;20049;-64
2023/03/23 02:43:31;;;;;;;13.90;10.27;;;6.90;99.90;;;;;;4845905;29;20057;-64
2023/03/23 02:45:57;;;;;;;15.48;10.23;;;6.90;99.90;;;;;;4845164;29;20061;-67
2023/03/23 02:48:28;;;;;;;10.88;8.05;;;6.90;99.90;;;;;;4857610;29;20408;-63
2023/03/23 02:50:54;;;;;;;;;;;6.90;99.90;;;;;;4858560;29;20164;-64
2023/03/23 02:53:24;;;;;;;13.95;8.52;;;6.90;99.90;;;;;;4841369;29;20408;-67
2023/03/23 02:55:54;;;;;;;15.43;8.80;;;6.90;99.90;;;;;;4838577;29;20373;-63
2023/03/23 02:58:22;;;;;;;11.65;8.18;;;6.90;99.90;;;;;;4860485;29;20486;-64
2023/03/23 03:00:51;;;;;;;12.13;8.82;;;6.90;99.90;;;;;;4846229;29;20050;-63
2023/03/23 03:03:23;;;;;;;11.85;7.85;;;6.90;99.90;;;;;;4838680;29;20050;-64
2023/03/23 03:06:26;;;;;;;17.27;8.60;;;6.90;99.90;;;;;;4835195;29;20072;-64
2023/03/23 03:09:26;;;;;;;11.90;7.00;;;6.90;99.90;;;;;;4842679;29;20062;-64
2023/03/23 03:11:58;;;;;;;11.55;7.90;;;6.90;99.90;;;;;;4862488;29;20054;-63
2023/03/23 03:14:47;;;;;;;13.32;8.35;;;6.90;99.90;;;;;;4859412;29;20045;-65
2023/03/23 03:17:25;;;;;;;8.93;6.55;;;6.80;99.90;;;;;;4847722;29;20060;-64
2023/03/23 03:20:07;;;;;;;10.60;7.63;;;6.80;99.90;;;;;;4855378;29;20033;-63
2023/03/23 03:22:37;;;;;;;8.90;6.28;;;6.80;99.90;;;;;;4855316;29;20045;-63
2023/03/23 03:25:05;;;;;;;8.00;7.05;;;6.80;99.90;;;;;;4842396;29;20092;-65
2023/03/23 03:27:32;;;;;;;9.18;7.45;;;6.80;99.90;;;;;;4842147;29;20450;-63
2023/03/23 03:30:26;;;;;;;12.48;8.52;;;6.80;99.90;;;;;;4856305;29;20389;-63
2023/03/23 03:32:53;;;;;;;12.02;7.90;;;6.80;99.90;;;;;;4860204;29;20041;-63
2023/03/23 03:35:23;;;;;;;14.45;6.88;;;6.80;99.90;;;;;;4832185;29;20042;-63
2023/03/23 03:37:50;;;;;;;11.07;6.75;;;6.70;99.90;;;;;;4841884;29;20057;-64
2023/03/23 03:40:19;;;;;;;13.63;5.97;;;6.70;99.90;;;;;;4838833;29;20083;-65
2023/03/23 03:42:46;;;;;;;12.05;7.35;;;6.70;99.90;;;;;;4856898;29;20041;-63
2023/03/23 03:45:16;;;;;;;14.77;6.97;;;6.70;99.90;;;;;;4844556;29;20046;-64
2023/03/23 03:47:42;;;;;;;12.70;7.10;;;6.70;99.90;;;;;;4854123;29;20551;-64
2023/03/23 03:50:09;;;;;;;19.15;6.35;;;6.70;99.90;;;;;;4822818;29;20049;-67
2023/03/23 03:52:36;;;;;;;13.88;6.30;;;6.70;99.90;;;;;;4847644;29;20496;-65
2023/03/23 03:55:02;;;;;;;11.52;5.90;;;6.70;99.90;;;;;;4841086;29;20144;-64
2023/03/23 03:57:30;;;;;;;21.52;6.47;;;6.70;99.90;;;;;;4850453;29;20056;-66
2023/03/23 03:59:56;;;;;;;14.77;6.85;;;6.70;99.90;;;;;;4841202;29;20049;-65
2023/03/23 04:02:47;;;;;;;9.55;5.45;;;6.70;99.90;;;;;;4842888;29;20091;-66
2023/03/23 04:05:14;;;;;;;8.27;5.57;;;6.70;99.90;;;;;;4844137;29;20080;-63
2023/03/23 04:07:42;;;;;;;13.95;5.10;;;6.70;99.90;;;;;;4835988;29;20050;-67
2023/03/23 04:10:10;;;;;;;11.80;5.53;;;6.70;99.90;;;;;;4846968;29;20045;-64
2023/03/23 04:12:37;;;;;;;9.43;4.90;;;6.70;99.90;;;;;;4842209;29;20173;-66
2023/03/23 04:15:38;;;;;;;28.08;5.97;;;6.70;99.90;;;;;;4841101;29;20042;-64
2023/03/23 04:18:05;;;;;;;14.13;5.18;;;6.70;99.90;;;;;;4844125;29;20049;-66
2023/03/23 04:20:31;;;;;;;18.30;7.13;;;6.70;99.90;;;;;;4843703;29;20599;-63
2023/03/23 04:22:57;;;;;;;21.00;6.55;;;6.70;99.90;;;;;;4841219;29;20053;-63
2023/03/23 04:25:24;;;;;;;12.50;5.72;;;6.80;99.90;;;;;;4845393;29;20118;-67
2023/03/23 04:27:52;;;;;;;10.75;5.07;;;6.80;99.90;;;;;;4847768;29;20041;-64
2023/03/23 04:30:24;;;;;;;7.90;5.80;;;6.80;99.90;;;;;;4855990;29;20054;-66
2023/03/23 04:33:14;;;;;;;11.52;4.72;;;6.70;99.90;;;;;;4839066;29;20373;-67
2023/03/23 04:35:45;;;;;;;10.25;5.20;;;6.80;99.90;;;;;;4841120;29;20049;-63
2023/03/23 04:38:38;;;;;;;16.10;6.78;;;6.70;99.90;;;;;;4834438;29;20058;-64
2023/03/23 04:41:11;;;;;;;16.02;5.38;;;6.70;99.90;;;;;;4843319;29;20132;-64
2023/03/23 04:43:52;;;;;;;10.95;7.00;;;6.70;99.90;;;;;;4858009;29;20049;-63
2023/03/23 04:46:30;;;;;;;14.13;5.32;;;6.70;99.90;;;;;;4848042;29;20058;-64
2023/03/23 04:49:01;;;;;;;16.75;6.80;;;6.70;99.90;;;;;;4848609;29;20117;-66
2023/03/23 04:51:31;;;;;;;11.48;6.43;;;6.70;99.90;;;;;;4848740;29;20675;-66
2023/03/23 04:54:09;;;;;;;11.15;5.35;;;6.70;99.90;;;;;;4842397;29;20374;-62
2023/03/23 04:56:38;;;;;;;8.60;5.40;;;6.70;99.90;;;;;;4846207;29;20066;-64
2023/03/23 04:59:10;;;;;;;15.30;8.13;;;6.60;99.90;;;;;;4850236;29;20129;-63
2023/03/23 05:01:44;;;;;;;13.98;6.47;;;6.50;99.90;;;;;;4846277;29;20140;-62
2023/03/23 05:04:20;;;;;;;14.38;7.38;;;6.50;99.90;;;;;;4847473;29;20053;-65
2023/03/23 05:07:11;;;;;;;14.90;8.02;;;6.50;99.90;;;;;;4842469;29;20064;-64
2023/03/23 05:09:46;;;;;;;12.93;7.93;;;6.50;99.90;;;;;;4843222;29;20081;-66
2023/03/23 05:12:12;;;;;;;17.85;9.23;;;6.40;99.90;;;;;;4846760;29;20062;-67
2023/03/23 05:14:58;;;;;;;18.65;11.32;;;6.50;99.90;;;;;;4853126;29;20698;-63
2023/03/23 05:17:26;;;;;;;16.05;9.25;;;6.40;99.90;;;;;;4831056;29;20037;-66
2023/03/23 05:19:56;;;;;;;16.80;9.82;;;6.40;99.90;;;;;;4855077;29;20050;-65
2023/03/23 05:22:51;;;;;;;20.33;11.40;;;6.40;99.90;;;;;;4838484;29;20504;-65
2023/03/23 05:25:26;;;;;;;20.13;12.05;;;6.30;99.90;;;;;;4842321;29;20544;-65
2023/03/23 05:28:00;;;;;;;26.52;13.70;;;6.30;99.90;;;;;;4856139;29;20144;-67
2023/03/23 05:30:48;;;;;;;29.15;13.60;;;6.30;99.90;;;;;;4842250;29;20105;-63
2023/03/23 05:33:15;;;;;;;23.77;14.93;;;6.30;99.90;;;;;;4844623;29;20046;-66
2023/03/23 05:35:51;;;;;;;21.77;14.85;;;6.30;99.90;;;;;;4842368;29;20050;-65
2023/03/23 05:38:24;;;;;;;26.67;16.35;;;6.30;99.90;;;;;;4845328;29;20057;-66
2023/03/23 05:40:50;;;;;;;22.00;14.80;;;6.30;99.90;;;;;;4849548;29;20093;-65
2023/03/23 05:43:21;;;;;;;26.73;17.15;;;6.40;99.90;;;;;;4845994;29;20049;-63
2023/03/23 05:46:08;;;;;;;25.90;16.15;;;6.40;99.90;;;;;;4842721;29;20106;-65
2023/03/23 05:48:34;;;;;;;26.42;17.02;;;6.40;99.90;;;;;;4844178;29;20050;-63
2023/03/23 05:51:01;;;;;;;31.48;19.35;;;6.40;99.90;;;;;;4847805;29;20077;-64
2023/03/23 05:53:30;;;;;;;27.20;17.70;;;6.50;99.90;;;;;;4834594;29;20548;-64
2023/03/23 05:56:01;;;;;;;31.13;20.20;;;6.50;99.90;;;;;;4843729;29;20056;-65
2023/03/23 05:58:54;;;;;;;31.95;16.95;;;6.50;99.90;;;;;;4839133;29;20049;-65
2023/03/23 06:01:21;;;;;;;28.13;16.83;;;6.60;99.90;;;;;;4838273;29;20092;-64
2023/03/23 06:03:48;;;;;;;27.33;18.50;;;6.60;99.90;;;;;;4835306;29;20464;-64
2023/03/23 06:06:20;;;;;;;27.58;17.70;;;6.70;99.90;;;;;;4863194;29;20053;-66
2023/03/23 06:09:01;;;;;;;29.98;17.08;;;6.70;99.90;;;;;;4858155;29;20568;-64
2023/03/23 06:11:47;;;;;;;27.15;18.10;;;6.70;99.90;;;;;;4841719;29;20057;-66
2023/03/23 06:14:39;;;;;;;31.25;18.02;;;6.80;99.90;;;;;;4833470;29;20049;-64
2023/03/23 06:17:06;;;;;;;30.27;18.98;;;6.80;99.90;;;;;;4864983;29;20045;-66
2023/03/23 06:19:32;;;;;;;29.08;18.65;;;6.90;99.90;;;;;;4845162;29;20057;-64
2023/03/23 06:22:05;;;;;;;34.83;19.45;;;6.90;99.90;;;;;;4845326;29;20055;-63
2023/03/23 06:25:00;;;;;;;35.55;20.55;;;6.90;99.90;;;;;;4839450;29;20117;-64
2023/03/23 06:27:35;;;;;;;38.13;23.48;;;6.90;99.90;;;;;;4847973;29;20096;-67
2023/03/23 06:30:04;;;;;;;33.72;21.15;;;6.90;99.90;;;;;;4854631;29;20054;-66
2023/03/23 06:32:31;;;;;;;36.10;22.88;;;6.90;99.90;;;;;;4814070;29;20206;-67
2023/03/23 06:34:57;;;;;;;39.42;20.90;;;6.90;99.90;;;;;;4843067;29;20110;-68
2023/03/23 06:37:53;;;;;;;35.97;22.25;;;6.90;99.90;;;;;;4847316;29;20046;-67
2023/03/23 06:40:28;;;;;;;37.38;22.40;;;7.00;99.90;;;;;;4847850;29;20896;-67
2023/03/23 06:42:59;;;;;;;38.13;23.33;;;7.00;99.90;;;;;;4847193;29;20523;-63
2023/03/23 06:45:48;;;;;;;36.83;23.88;;;7.00;99.90;;;;;;4844425;29;20884;-63
2023/03/23 06:48:33;;;;;;;38.40;24.15;;;7.10;99.90;;;;;;4841507;29;20100;-62
2023/03/23 06:51:00;;;;;;;36.92;21.95;;;7.10;99.90;;;;;;4843923;29;20053;-65
2023/03/23 06:53:27;;;;;;;38.30;21.70;;;7.10;99.90;;;;;;4833874;29;20815;-64
2023/03/23 06:55:56;;;;;;;33.08;21.23;;;7.10;99.90;;;;;;4848734;29;20049;-63
2023/03/23 06:58:23;;;;;;;41.95;24.00;;;7.20;99.90;;;;;;4841115;29;20081;-64
2023/03/23 07:00:57;;;;;;;37.60;23.40;;;7.20;99.90;;;;;;4842515;29;20066;-64
2023/03/23 07:03:28;;;;;;;36.60;23.95;;;7.20;99.90;;;;;;4843030;29;20053;-64
2023/03/23 07:05:54;;;;;;;35.72;22.38;;;7.20;99.90;;;;;;4857440;29;20441;-63
2023/03/23 07:08:23;;;;;;;37.00;23.60;;;7.20;99.90;;;;;;4824391;29;20042;-65
2023/03/23 07:10:54;;;;;;;38.30;25.00;;;7.20;99.90;;;;;;4841172;29;20770;-63
2023/03/23 07:13:25;;;;;;;37.72;21.23;;;7.20;99.90;;;;;;4844141;29;20056;-65
2023/03/23 07:15:55;;;;;;;36.90;22.00;;;7.20;99.90;;;;;;4856599;29;20053;-63
2023/03/23 07:18:21;;;;;;;33.58;21.52;;;7.20;99.90;;;;;;4837956;29;20049;-65
2023/03/23 07:20:52;;;;;;;38.55;22.98;;;7.20;99.90;;;;;;4839729;29;20041;-63
2023/03/23 07:23:21;;;;;;;36.05;23.55;;;7.20;99.90;;;;;;4844848;29;20042;-63
2023/03/23 07:25:54;;;;;;;35.20;21.48;;;7.20;99.90;;;;;;4844425;29;20065;-63
2023/03/23 07:28:25;;;;;;;35.20;20.98;;;7.20;99.90;;;;;;4842120;29;20181;-63
2023/03/23 07:30:53;;;;;;;41.30;21.27;;;7.20;99.90;;;;;;4840733;29;20132;-65
2023/03/23 07:33:21;;;;;;;36.42;21.13;;;7.30;99.90;;;;;;4838339;29;20140;-67
2023/03/23 07:35:48;;;;;;;30.83;19.95;;;7.20;99.90;;;;;;4855806;29;20049;-63
2023/03/23 07:38:16;;;;;;;34.10;21.58;;;7.30;99.90;;;;;;4839899;29;20089;-66
2023/03/23 07:40:46;;;;;;;;;;;7.30;99.90;;;;;;4841054;29;20532;-64
2023/03/23 07:43:17;;;;;;;38.42;23.65;;;7.30;99.90;;;;;;4857193;29;19927;-63
2023/03/23 07:46:06;;;;;;;43.53;26.05;;;7.40;99.90;;;;;;4845133;29;20049;-66
2023/03/23 07:48:42;;;;;;;37.50;23.08;;;7.40;99.90;;;;;;4840811;29;20433;-63
2023/03/23 07:51:08;;;;;;;45.67;25.90;;;7.40;99.90;;;;;;4842230;29;20050;-62
2023/03/23 07:53:35;;;;;;;40.72;23.90;;;7.40;99.90;;;;;;4843129;29;20122;-66
2023/03/23 07:56:18;;;;;;;51.50;26.92;;;7.50;99.90;;;;;;4851420;29;20046;-62
2023/03/23 07:59:06;;;;;;;43.72;26.60;;;7.50;99.90;;;;;;4859013;29;20647;-66
2023/03/23 08:01:34;;;;;;;32.88;23.15;;;7.50;99.90;;;;;;4844455;29;20046;-63
2023/03/23 08:04:27;;;;;;;38.08;21.48;;;7.60;99.90;;;;;;4833317;29;20052;-64
2023/03/23 08:07:17;;;;;;;41.30;24.33;;;7.60;99.90;;;;;;4833243;29;20046;-63
2023/03/23 08:09:52;;;;;;;35.58;21.30;;;7.60;99.90;;;;;;4847628;29;20057;-62
2023/03/23 08:12:33;;;;;;;27.95;20.35;;;7.60;99.90;;;;;;4842548;29;20854;-65
2023/03/23 08:15:14;;;;;;;39.20;22.77;;;7.60;99.90;;;;;;4841821;29;20057;-64
2023/03/23 08:17:58;;;;;;;29.60;20.50;;;7.70;99.90;;;;;;4840599;29;20050;-65
2023/03/23 08:20:53;;;;;;;33.70;21.30;;;7.70;99.90;;;;;;4841982;29;20077;-67
2023/03/23 08:23:48;;;;;;;34.83;20.25;;;7.70;99.90;;;;;;4835381;29;20072;-63
2023/03/23 08:26:20;;;;;;;36.10;20.73;;;7.70;99.90;;;;;;4852116;29;20496;-63
2023/03/23 08:28:58;;;;;;;35.60;22.88;;;7.70;99.90;;;;;;4845216;29;20557;-65
2023/03/23 08:31:44;;;;;;;35.50;21.08;;;7.80;99.90;;;;;;4845571;29;20049;-62
2023/03/23 08:34:30;;;;;;;36.22;20.73;;;7.80;99.90;;;;;;4847145;29;20130;-65
2023/03/23 08:37:09;;;;;;;36.20;22.20;;;7.80;99.90;;;;;;4842459;29;20316;-67
2023/03/23 08:39:56;;;;;;;33.17;22.20;;;7.80;99.90;;;;;;4860242;29;20344;-62
2023/03/23 08:42:38;;;;;;;34.10;22.15;;;7.80;99.90;;;;;;4842644;29;20156;-64
2023/03/23 08:45:17;;;;;;;37.50;24.00;;;7.90;99.90;;;;;;4844531;29;20042;-63
2023/03/23 08:48:10;;;;;;;40.97;23.20;;;7.90;99.90;;;;;;4843768;29;20050;-62
2023/03/23 08:50:55;;;;;;;35.28;22.10;;;8.00;99.90;;;;;;4843747;29;20336;-64
2023/03/23 08:53:20;;;;;;;39.30;23.25;;;8.00;99.90;;;;;;4841607;29;20046;-63
2023/03/23 08:55:48;;;;;;;34.95;23.13;;;8.10;99.90;;;;;;4851806;29;20391;-65
2023/03/23 08:58:20;;;;;;;37.63;22.90;;;8.20;99.90;;;;;;4846743;29;20044;-65
2023/03/23 09:01:06;;;;;;;36.25;23.63;;;8.30;99.90;;;;;;4841932;29;20068;-64
2023/03/23 09:04:11;;;;;;;39.42;23.83;;;8.30;99.90;;;;;;4811081;29;20153;-65
2023/03/23 09:06:56;;;;;;;33.53;22.00;;;8.40;99.90;;;;;;4811249;29;20054;-63
2023/03/23 09:09:21;;;;;;;34.65;21.42;;;8.30;99.90;;;;;;4832646;29;20045;-64
2023/03/23 09:11:47;;;;;;;28.08;18.98;;;8.30;99.90;;;;;;4849823;29;20740;-67
2023/03/23 09:14:13;;;;;;;29.00;18.23;;;8.30;99.90;;;;;;4849245;29;20494;-67
2023/03/23 09:16:39;;;;;;;30.25;17.88;;;8.40;99.90;;;;;;4847638;29;20345;-66
2023/03/23 09:19:08;;;;;;;24.83;18.85;;;8.50;99.90;;;;;;4847490;29;20054;-68
2023/03/23 09:21:35;;;;;;;28.80;15.85;;;8.60;99.90;;;;;;4846981;29;20052;-65
2023/03/23 09:24:01;;;;;;;25.02;16.83;;;8.70;99.90;;;;;;4846719;29;20145;-65
2023/03/23 09:26:27;;;;;;;23.90;16.42;;;8.70;99.90;;;;;;4845260;29;20060;-65
2023/03/23 09:28:53;;;;;;;19.08;13.82;;;8.70;99.90;;;;;;4844312;29;20101;-67
2023/03/23 09:31:22;;;;;;;19.92;12.43;;;8.80;99.90;;;;;;4847385;29;20053;-66
2023/03/23 09:33:51;;;;;;;19.75;12.50;;;8.80;99.90;;;;;;4849051;29;20140;-65
2023/03/23 09:36:21;;;;;;;16.60;12.20;;;8.90;99.90;;;;;;4848067;29;20083;-61
2023/03/23 09:38:48;;;;;;;18.85;11.35;;;8.90;99.90;;;;;;4844056;29;20053;-64
2023/03/23 09:41:26;;;;;;;15.90;10.85;;;9.00;99.90;;;;;;4845882;29;20050;-67
2023/03/23 09:44:00;;;;;;;17.23;11.43;;;9.10;99.90;;;;;;4848890;29;20060;-65
2023/03/23 09:46:44;;;;;;;18.15;11.57;;;9.20;99.90;;;;;;4846773;29;20052;-65
2023/03/23 09:49:28;;;;;;;18.08;11.65;;;9.40;99.90;;;;;;4845934;29;20053;-65
2023/03/23 09:51:59;;;;;;;16.77;12.73;;;9.50;99.90;;;;;;4847034;29;20634;-66
2023/03/23 09:54:47;;;;;;;16.88;11.57;;;9.40;99.90;;;;;;4844591;29;20042;-65
2023/03/23 09:57:29;;;;;;;19.38;11.43;;;9.30;99.90;;;;;;4846594;29;20068;-66
2023/03/23 10:00:07;;;;;;;14.52;11.70;;;9.20;99.90;;;;;;4838174;29;20430;-67
2023/03/23 10:02:52;;;;;;;18.75;12.63;;;9.30;99.90;;;;;;4845302;29;20056;-66
2023/03/23 10:05:31;;;;;;;19.80;12.02;;;9.30;99.90;;;;;;4848240;29;20438;-63
2023/03/23 10:07:56;;;;;;;15.35;10.70;;;9.30;99.90;;;;;;4840891;29;20052;-68
2023/03/23 10:10:35;;;;;;;15.50;11.07;;;9.30;99.90;;;;;;4849093;29;20065;-65
2023/03/23 10:13:26;;;;;;;15.57;11.05;;;9.30;99.90;;;;;;4841627;29;20125;-67
2023/03/23 10:15:54;;;;;;;14.13;10.00;;;9.30;99.90;;;;;;4843263;29;20104;-68
2023/03/23 10:18:33;;;;;;;23.77;12.07;;;9.30;99.90;;;;;;4859621;29;20049;-63
2023/03/23 10:21:01;;;;;;;13.60;10.38;;;9.30;99.90;;;;;;4842734;29;20053;-68
2023/03/23 10:23:52;;;;;;;12.52;10.77;;;9.40;99.90;;;;;;4848167;29;20148;-65
2023/03/23 10:26:47;;;;;;;11.48;9.35;;;9.40;99.90;;;;;;4847543;29;20140;-66
2023/03/23 10:29:24;;;;;;;13.05;9.05;;;9.30;99.90;;;;;;4846961;29;20057;-66
2023/03/23 10:32:08;;;;;;;12.85;9.07;;;9.10;99.90;;;;;;4847313;29;20130;-65
2023/03/23 10:34:43;;;;;;;13.13;9.38;;;9.00;99.90;;;;;;4844710;29;20106;-66
2023/03/23 10:37:21;;;;;;;11.68;10.07;;;8.80;99.90;;;;;;4842978;29;20054;-67
2023/03/23 10:39:54;;;;;;;14.40;10.10;;;8.80;99.90;;;;;;4847477;29;20136;-64
2023/03/23 10:42:35;;;;;;;11.43;8.32;;;8.70;99.90;;;;;;4848102;29;20544;-64
2023/03/23 10:45:22;;;;;;;11.43;8.32;;;8.60;99.90;;;;;;4846210;29;20067;-64
2023/03/23 10:48:21;;;;;;;9.23;7.00;;;8.50;99.90;;;;;;4846383;29;20108;-64
2023/03/23 10:50:53;;;;;;;8.60;7.67;;;8.30;99.90;;;;;;4844006;29;20694;-65
2023/03/23 10:53:34;;;;;;;11.35;8.70;;;8.30;99.90;;;;;;4845280;29;20050;-66
2023/03/23 10:56:01;;;;;;;10.07;6.88;;;8.20;99.90;;;;;;4842525;29;20054;-66
2023/03/23 10:58:33;;;;;;;9.20;8.20;;;8.20;99.90;;;;;;4847315;29;20092;-64
2023/03/23 11:01:00;;;;;;;8.73;7.00;;;8.10;99.90;;;;;;4838750;29;20050;-69
2023/03/23 11:03:32;;;;;;;6.93;5.80;;;8.00;99.90;;;;;;4841071;29;20056;-67
2023/03/23 11:06:33;;;;;;;7.60;6.28;;;7.90;99.90;;;;;;4848081;29;20644;-68
2023/03/23 11:09:11;;;;;;;5.20;4.32;;;7.90;99.90;;;;;;4842488;29;20065;-69
2023/03/23 11:11:42;;;;;;;7.80;4.20;;;7.80;99.90;;;;;;4846393;29;20558;-64
2023/03/23 11:14:34;;;;;;;6.55;5.40;;;7.70;99.90;;;;;;4842579;29;20056;-64
2023/03/23 11:17:02;;;;;;;4.68;4.18;;;7.70;99.90;;;;;;4839428;29;20049;-67
2023/03/23 11:19:31;;;;;;;6.45;5.35;;;7.80;99.90;;;;;;4845477;29;20457;-64
2023/03/23 11:22:19;;;;;;;5.93;4.40;;;7.80;99.90;;;;;;4841875;29;20053;-65
2023/03/23 11:24:47;;;;;;;7.60;4.43;;;8.00;99.90;;;;;;4842395;29;20555;-65
2023/03/23 11:27:15;;;;;;;5.80;4.15;;;8.00;99.90;;;;;;4846539;29;20061;-66
2023/03/23 11:29:55;;;;;;;6.60;4.95;;;8.00;99.90;;;;;;4865864;29;20046;-64
2023/03/23 11:32:27;;;;;;;4.38;3.80;;;8.00;99.90;;;;;;4861567;29;20045;-63
2023/03/23 11:35:01;;;;;;;4.28;3.88;;;8.00;99.90;;;;;;4837127;29;20050;-63
2023/03/23 11:37:43;;;;;;;4.80;3.53;;;8.00;99.90;;;;;;4847483;29;20057;-65
2023/03/23 11:40:12;;;;;;;3.85;3.40;;;8.00;99.90;;;;;;4848291;29;20087;-64
2023/03/23 11:42:44;;;;;;;4.88;4.18;;;7.90;99.90;;;;;;4847051;29;20567;-66
2023/03/23 11:45:48;;;;;;;4.22;3.78;;;7.90;99.90;;;;;;4846280;29;20113;-66
2023/03/23 11:48:26;;;;;;;4.60;3.85;;;7.90;99.90;;;;;;4777259;29;20051;-66
2023/03/23 11:51:01;;;;;;;4.57;3.92;;;7.90;99.90;;;;;;4839845;29;20053;-64
2023/03/23 11:53:45;;;;;;;4.13;3.05;;;8.00;99.90;;;;;;4860477;29;20514;-67
2023/03/23 11:56:28;;;;;;;4.78;3.78;;;8.00;99.90;;;;;;4844321;29;20479;-66
2023/03/23 11:58:56;;;;;;;3.35;2.97;;;7.90;99.90;;;;;;4846399;29;20404;-65
2023/03/23 12:01:44;;;;;;;3.10;2.70;;;8.00;99.90;;;;;;4820516;29;20061;-66
2023/03/23 12:04:52;;;;;;;3.90;2.97;;;7.90;99.90;;;;;;4840396;29;20125;-65
2023/03/23 12:07:31;;;;;;;3.33;2.42;;;7.80;99.90;;;;;;4839240;29;20057;-65
2023/03/23 12:10:03;;;;;;;3.92;2.78;;;7.80;99.90;;;;;;4839928;29;20117;-64
2023/03/23 12:12:52;;;;;;;4.32;3.65;;;7.90;99.90;;;;;;4843994;29;20072;-68
2023/03/23 12:15:36;;;;;;;3.83;2.88;;;8.00;99.90;;;;;;4840901;29;20046;-65
2023/03/23 12:18:17;;;;;;;4.13;2.92;;;8.00;99.90;;;;;;4839034;29;20066;-64
2023/03/23 12:20:51;;;;;;;4.00;2.85;;;8.00;99.90;;;;;;4838829;29;20069;-67
2023/03/23 12:23:25;;;;;;;4.85;3.85;;;8.10;99.90;;;;;;4844325;29;20046;-66
2023/03/23 12:26:09;;;;;;;4.07;3.17;;;8.20;99.90;;;;;;4842247;29;20480;-65
2023/03/23 12:28:44;;;;;;;4.95;3.38;;;8.20;99.90;;;;;;4839222;29;20078;-66
2023/03/23 12:31:43;;;;;;;4.45;3.03;;;8.30;99.90;;;;;;4844239;29;20120;-67
2023/03/23 12:34:44;;;;;;;4.80;2.78;;;8.40;99.90;;;;;;4848126;29;20148;-68
2023/03/23 12:37:38;;;;;;;5.40;4.50;;;8.50;99.90;;;;;;4842133;29;20058;-68
2023/03/23 12:40:17;;;;;;;4.28;3.13;;;8.50;99.90;;;;;;4842002;29;20140;-68
2023/03/23 12:42:48;;;;;;;4.15;3.67;;;8.50;99.90;;;;;;4842433;29;20046;-70
2023/03/23 12:45:18;;;;;;;3.92;3.25;;;8.50;99.90;;;;;;4842302;29;20475;-65
2023/03/23 12:47:58;;;;;;;4.97;4.57;;;8.50;99.90;;;;;;4842768;29;20535;-67
2023/03/23 12:50:43;;;;;;;4.53;3.72;;;8.40;99.90;;;;;;4844296;29;20492;-68
2023/03/23 12:53:16;;;;;;;4.70;3.50;;;8.50;99.90;;;;;;4847879;29;20480;-68
2023/03/23 12:55:46;;;;;;;3.38;3.08;;;8.50;99.90;;;;;;4845027;29;20050;-68
2023/03/23 12:58:15;;;;;;;;;;;8.50;99.90;;;;;;4847254;29;20080;-68
2023/03/23 13:00:54;;;;;;;3.97;3.40;;;8.50;99.90;;;;;;4840502;29;19924;-66
2023/03/23 13:03:56;;;;;;;3.67;2.80;;;8.60;99.90;;;;;;4860646;29;20041;-66
2023/03/23 13:06:25;;;;;;;3.30;3.00;;;8.60;99.90;;;;;;4844201;29;20193;-66
2023/03/23 13:09:19;;;;;;;3.42;3.13;;;8.70;99.90;;;;;;4848982;29;20065;-67
2023/03/23 13:11:46;;;;;;;4.45;3.85;;;8.90;99.90;;;;;;4849516;29;20061;-67
2023/03/23 13:14:26;;;;;;;3.92;3.45;;;8.80;99.90;;;;;;4842063;29;20080;-66
2023/03/23 13:17:05;;;;;;;5.40;4.57;;;8.90;99.90;;;;;;4855516;29;20049;-69
2023/03/23 13:19:49;;;;;;;4.45;4.05;;;9.10;99.90;;;;;;4853309;29;20102;-66
2023/03/23 13:22:33;;;;;;;3.78;3.40;;;9.20;99.90;;;;;;4844507;29;20770;-69
2023/03/23 13:25:06;;;;;;;4.20;3.33;;;9.30;99.90;;;;;;4845771;29;20041;-69
2023/03/23 13:27:32;;;;;;;4.80;4.03;;;9.40;99.90;;;;;;4859198;29;20124;-66